createdAt,value
2022-12-08T00:00:55.224Z,19.17
2022-12-08T00:03:22.319Z,20.58
2022-12-08T00:05:49.769Z,20.70
2022-12-08T00:08:16.612Z,22.38
2022-12-08T00:10:50.102Z,21.50
2022-12-08T00:13:16.976Z,19.85
2022-12-08T00:15:43.588Z,22.73
2022-12-08T00:18:10.281Z,22.92
2022-12-08T00:20:36.967Z,22.92
2022-12-08T00:23:03.930Z,23.88
2022-12-08T00:25:30.615Z,24.95
2022-12-08T00:27:58.771Z,25.50
2022-12-08T00:30:25.388Z,24.65
2022-12-08T00:32:52.197Z,24.42
2022-12-08T00:35:18.898Z,25.98
2022-12-08T00:37:45.690Z,23.30
2022-12-08T00:40:12.585Z,26.65
2022-12-08T00:42:39.453Z,25.13
2022-12-08T00:45:08.481Z,24.30
2022-12-08T00:47:35.202Z,26.02
2022-12-08T00:50:02.309Z,25.90
2022-12-08T00:52:29.320Z,26.05
2022-12-08T00:54:55.972Z,25.80
2022-12-08T00:57:22.728Z,25.73
2022-12-08T00:59:49.284Z,26.15
2022-12-08T01:02:17.270Z,25.45
2022-12-08T01:04:44.016Z,25.25
2022-12-08T01:07:10.807Z,25.60
2022-12-08T01:09:37.807Z,26.42
2022-12-08T01:12:05.216Z,27.40
2022-12-08T01:14:31.833Z,26.23
2022-12-08T01:16:58.597Z,26.48
2022-12-08T01:19:26.649Z,25.80
2022-12-08T01:21:53.335Z,25.63
2022-12-08T01:24:21.242Z,26.88
2022-12-08T01:26:49.510Z,26.40
2022-12-08T01:29:16.733Z,26.35
2022-12-08T01:31:43.673Z,26.17
2022-12-08T01:34:11.384Z,25.67
2022-12-08T01:36:39.655Z,25.42
2022-12-08T01:39:08.506Z,24.45
2022-12-08T01:41:37.236Z,25.15
2022-12-08T01:44:42.579Z,25.05
2022-12-08T01:47:09.753Z,25.23
2022-12-08T01:49:36.826Z,26.15
2022-12-08T01:52:11.037Z,25.42
2022-12-08T01:54:45.306Z,24.40
2022-12-08T01:57:15.920Z,27.50
2022-12-08T01:59:47.875Z,24.15
2022-12-08T02:02:14.971Z,26.10
2022-12-08T02:04:41.787Z,24.98
2022-12-08T02:07:11.976Z,24.17
2022-12-08T02:09:40.545Z,25.73
2022-12-08T02:12:08.231Z,23.75
2022-12-08T02:14:35.416Z,22.35
2022-12-08T02:17:10.273Z,22.83
2022-12-08T02:20:04.542Z,23.63
2022-12-08T02:22:39.893Z,22.73
2022-12-08T02:25:15.946Z,22.20
2022-12-08T02:27:55.762Z,22.38
2022-12-08T02:30:26.195Z,21.75
2022-12-08T02:33:24.600Z,22.42
2022-12-08T02:35:58.916Z,21.65
2022-12-08T02:38:36.408Z,22.05
2022-12-08T02:41:19.056Z,21.23
2022-12-08T02:43:49.585Z,21.17
2022-12-08T02:46:22.563Z,21.20
2022-12-08T02:48:51.647Z,20.38
2022-12-08T02:51:19.636Z,18.70
2022-12-08T02:53:47.065Z,20.38
2022-12-08T02:56:33.093Z,20.45
2022-12-08T02:59:23.877Z,19.48
2022-12-08T03:02:21.979Z,19.10
2022-12-08T03:04:58.278Z,19.27
2022-12-08T03:07:49.288Z,18.42
2022-12-08T03:10:29.831Z,19.00
2022-12-08T03:13:02.823Z,18.00
2022-12-08T03:15:33.380Z,18.17
2022-12-08T03:18:05.878Z,18.70
2022-12-08T03:20:42.675Z,18.25
2022-12-08T03:23:32.533Z,16.92
2022-12-08T03:26:27.124Z,17.52
2022-12-08T03:29:28.228Z,16.73
2022-12-08T03:32:00.291Z,16.98
2022-12-08T03:34:54.466Z,17.15
2022-12-08T03:37:28.289Z,15.80
2022-12-08T03:39:56.818Z,15.75
2022-12-08T03:42:23.845Z,15.88
2022-12-08T03:44:50.601Z,15.93
2022-12-08T03:47:17.615Z,16.10
2022-12-08T03:49:44.397Z,16.25
2022-12-08T03:52:17.282Z,16.50
2022-12-08T03:55:04.661Z,16.00
2022-12-08T03:57:34.501Z,16.88
2022-12-08T04:00:08.299Z,18.17
2022-12-08T04:02:40.023Z,17.80
2022-12-08T04:05:09.597Z,16.85
2022-12-08T04:07:37.985Z,17.35
2022-12-08T04:10:08.146Z,18.65
2022-12-08T04:12:34.799Z,18.58
2022-12-08T04:15:01.351Z,17.92
2022-12-08T04:17:27.915Z,18.58
2022-12-08T04:19:54.618Z,19.88
2022-12-08T04:22:21.314Z,18.85
2022-12-08T04:24:48.259Z,20.00
2022-12-08T04:27:16.212Z,20.65
2022-12-08T04:29:42.814Z,20.63
2022-12-08T04:32:09.718Z,21.30
2022-12-08T04:34:36.275Z,21.67
2022-12-08T04:37:02.916Z,20.83
2022-12-08T04:39:29.553Z,24.35
2022-12-08T04:41:56.184Z,23.65
2022-12-08T04:44:24.387Z,25.70
2022-12-08T04:46:51.034Z,26.15
2022-12-08T04:49:17.780Z,27.50
2022-12-08T04:51:44.387Z,27.48
2022-12-08T04:54:10.985Z,28.42
2022-12-08T04:56:38.191Z,29.50
2022-12-08T04:59:04.896Z,27.80
2022-12-08T05:01:33.025Z,29.80
2022-12-08T05:03:59.759Z,29.45
2022-12-08T05:06:26.552Z,30.10
2022-12-08T05:08:53.232Z,29.05
2022-12-08T05:11:19.797Z,27.98
2022-12-08T05:13:46.449Z,26.45
2022-12-08T05:16:15.186Z,25.88
2022-12-08T05:18:43.680Z,26.00
2022-12-08T05:21:10.607Z,26.67
2022-12-08T05:23:37.295Z,22.08
2022-12-08T05:26:04.219Z,23.52
2022-12-08T05:28:46.091Z,24.17
2022-12-08T05:31:14.691Z,23.95
2022-12-08T05:33:43.015Z,23.33
2022-12-08T05:36:11.440Z,22.85
2022-12-08T05:38:38.106Z,23.15
2022-12-08T05:41:06.275Z,23.40
2022-12-08T05:43:32.917Z,24.20
2022-12-08T05:45:59.660Z,23.67
2022-12-08T05:48:26.405Z,23.83
2022-12-08T05:50:54.408Z,23.00
2022-12-08T05:53:21.199Z,23.80
2022-12-08T05:55:48.104Z,23.65
2022-12-08T05:58:17.105Z,22.40
2022-12-08T06:00:44.516Z,21.95
2022-12-08T06:03:11.717Z,21.77
2022-12-08T06:05:38.555Z,21.08
2022-12-08T06:08:06.838Z,22.02
2022-12-08T06:10:33.768Z,22.38
2022-12-08T06:13:00.415Z,22.10
2022-12-08T06:15:27.013Z,22.35
2022-12-08T06:17:53.634Z,21.90
2022-12-08T06:20:20.305Z,21.60
2022-12-08T06:22:46.963Z,21.33
2022-12-08T06:25:15.133Z,20.40
2022-12-08T06:27:41.723Z,20.08
2022-12-08T06:30:09.011Z,17.73
2022-12-08T06:32:36.204Z,17.92
2022-12-08T06:35:03.177Z,18.98
2022-12-08T06:37:29.809Z,17.67
2022-12-08T06:39:56.452Z,17.33
2022-12-08T06:42:24.469Z,16.98
2022-12-08T06:44:51.452Z,16.73
2022-12-08T06:47:22.078Z,16.73
2022-12-08T06:49:51.305Z,16.48
2022-12-08T06:52:17.848Z,17.48
2022-12-08T06:54:44.478Z,18.20
2022-12-08T06:57:11.211Z,17.70
2022-12-08T06:59:40.222Z,18.17
2022-12-08T07:02:06.994Z,19.80
2022-12-08T07:04:33.728Z,20.73
2022-12-08T07:07:00.346Z,21.98
2022-12-08T07:09:26.982Z,21.88
2022-12-08T07:11:53.584Z,22.48
2022-12-08T07:14:20.254Z,19.38
2022-12-08T07:16:48.377Z,22.80
2022-12-08T07:19:15.334Z,23.77
2022-12-08T07:21:42.024Z,23.27
2022-12-08T07:24:08.866Z,23.92
2022-12-08T07:26:35.501Z,24.77
2022-12-08T07:29:02.118Z,24.42
2022-12-08T07:31:28.795Z,26.65
2022-12-08T07:33:57.135Z,26.17
2022-12-08T07:36:24.559Z,25.58
2022-12-08T07:38:51.614Z,25.33
2022-12-08T07:41:20.227Z,26.30
2022-12-08T07:43:47.129Z,24.67
2022-12-08T07:46:15.497Z,27.02
2022-12-08T07:48:42.964Z,28.23
2022-12-08T07:51:12.354Z,27.58
2022-12-08T07:53:42.300Z,27.02
2022-12-08T07:56:10.539Z,26.35
2022-12-08T07:58:37.273Z,27.48
2022-12-08T08:01:04.766Z,25.42
2022-12-08T08:03:31.631Z,27.98
2022-12-08T08:06:03.061Z,25.00
2022-12-08T08:08:31.880Z,25.38
2022-12-08T08:10:58.757Z,25.40
2022-12-08T08:13:25.402Z,24.05
2022-12-08T08:15:52.070Z,24.70
2022-12-08T08:18:18.709Z,23.15
2022-12-08T08:20:45.414Z,22.40
2022-12-08T08:23:12.167Z,22.55
2022-12-08T08:25:40.105Z,22.20
2022-12-08T08:28:06.713Z,20.88
2022-12-08T08:30:33.332Z,20.65
2022-12-08T08:33:00.578Z,20.23
2022-12-08T08:35:27.292Z,20.33
2022-12-08T08:37:53.930Z,20.25
2022-12-08T08:40:20.533Z,20.23
2022-12-08T08:42:48.593Z,19.15
2022-12-08T08:45:15.443Z,20.00
2022-12-08T08:47:42.197Z,19.45
2022-12-08T08:50:09.193Z,20.27
2022-12-08T08:52:36.057Z,19.45
2022-12-08T08:55:02.916Z,19.58
2022-12-08T08:57:29.513Z,19.60
2022-12-08T08:59:57.489Z,19.95
2022-12-08T09:02:24.157Z,18.40
2022-12-08T09:04:51.002Z,18.95
2022-12-08T09:07:17.733Z,19.13
2022-12-08T09:09:44.364Z,19.40
2022-12-08T09:12:14.148Z,19.33
2022-12-08T09:14:40.934Z,18.27
2022-12-08T09:17:09.304Z,18.73
2022-12-08T09:19:35.922Z,19.08
2022-12-08T09:22:02.715Z,18.58
2022-12-08T09:24:29.351Z,17.75
2022-12-08T09:26:55.894Z,18.77
2022-12-08T09:29:22.582Z,17.92
2022-12-08T09:31:49.261Z,18.15
2022-12-08T09:34:46.455Z,18.25
2022-12-08T09:37:17.972Z,18.73
2022-12-08T09:39:44.603Z,17.00
2022-12-08T09:42:47.506Z,17.05
2022-12-08T09:45:16.809Z,17.42
2022-12-08T09:47:47.903Z,18.33
2022-12-08T09:50:22.684Z,17.52
2022-12-08T09:52:55.547Z,17.75
2022-12-08T09:55:25.377Z,16.75
2022-12-08T09:58:00.550Z,17.00
2022-12-08T10:00:27.293Z,17.98
2022-12-08T10:02:55.913Z,17.38
2022-12-08T10:05:26.424Z,17.80
2022-12-08T10:08:04.361Z,17.23
2022-12-08T10:10:39.246Z,15.88
2022-12-08T10:13:38.037Z,16.92
2022-12-08T10:18:55.674Z,16.45
2022-12-08T10:21:28.483Z,15.98
2022-12-08T10:23:59.905Z,15.10
2022-12-08T10:26:26.631Z,15.35
2022-12-08T10:28:53.351Z,15.60
2022-12-08T10:31:22.606Z,16.10
2022-12-08T10:33:55.012Z,14.80
2022-12-08T10:36:23.251Z,14.50
2022-12-08T10:38:49.948Z,14.25
2022-12-08T10:41:16.750Z,13.77
2022-12-08T10:43:47.172Z,13.18
2022-12-08T10:46:18.177Z,13.65
2022-12-08T10:48:50.868Z,14.27
2022-12-08T10:53:54.039Z,13.18
2022-12-08T10:56:25.377Z,13.52
2022-12-08T10:59:06.681Z,11.98
2022-12-08T11:01:37.723Z,11.38
2022-12-08T11:04:07.258Z,10.80
2022-12-08T11:06:37.367Z,12.02
2022-12-08T11:09:07.076Z,11.10
2022-12-08T11:11:45.103Z,11.25
2022-12-08T11:14:19.244Z,11.30
2022-12-08T11:16:46.138Z,11.18
2022-12-08T11:19:16.366Z,11.10
2022-12-08T11:21:45.456Z,11.63
2022-12-08T11:24:22.712Z,11.88
2022-12-08T11:26:53.901Z,10.73
2022-12-08T11:29:21.044Z,10.60
2022-12-08T11:31:53.326Z,11.13
2022-12-08T11:34:30.400Z,10.63
2022-12-08T11:36:59.476Z,11.25
2022-12-08T11:39:28.358Z,10.90
2022-12-08T11:41:57.386Z,11.10
2022-12-08T11:44:35.604Z,10.50
2022-12-08T11:47:11.010Z,10.30
2022-12-08T11:49:39.308Z,10.82
2022-12-08T11:52:17.415Z,10.75
2022-12-08T11:54:49.689Z,11.85
2022-12-08T11:57:16.345Z,10.40
2022-12-08T11:59:45.601Z,11.35
2022-12-08T12:02:17.015Z,11.10
2022-12-08T12:04:50.070Z,11.05
2022-12-08T12:07:50.722Z,11.05
2022-12-08T12:10:40.983Z,12.23
2022-12-08T12:13:28.671Z,11.32
2022-12-08T12:16:16.726Z,11.80
2022-12-08T12:18:46.216Z,11.18
2022-12-08T12:21:18.412Z,11.77
2022-12-08T12:23:51.522Z,12.60
2022-12-08T12:26:21.535Z,11.93
2022-12-08T12:28:51.419Z,10.95
2022-12-08T12:31:21.558Z,11.45
2022-12-08T12:33:50.160Z,11.48
2022-12-08T12:36:17.193Z,11.65
2022-12-08T12:38:49.340Z,11.77
2022-12-08T12:41:25.478Z,12.35
2022-12-08T12:44:22.251Z,12.73
2022-12-08T12:46:58.026Z,12.30
2022-12-08T12:49:50.387Z,12.43
2022-12-08T12:52:42.704Z,13.02
2022-12-08T12:55:28.688Z,13.38
2022-12-08T12:57:56.642Z,12.90
2022-12-08T13:00:25.518Z,13.57
2022-12-08T13:02:54.446Z,13.63
2022-12-08T13:05:24.384Z,12.63
2022-12-08T13:07:55.095Z,12.25
2022-12-08T13:10:24.142Z,12.85
2022-12-08T13:13:17.736Z,12.82
2022-12-08T13:15:50.631Z,13.63
2022-12-08T13:18:20.745Z,13.75
2022-12-08T13:20:51.689Z,12.77
2022-12-08T13:23:41.788Z,12.82
2022-12-08T13:26:20.430Z,12.73
2022-12-08T13:29:18.534Z,12.40
2022-12-08T13:31:50.924Z,13.77
2022-12-08T13:34:29.707Z,13.65
2022-12-08T13:37:20.633Z,13.02
2022-12-08T13:39:51.215Z,13.77
2022-12-08T13:42:23.346Z,12.43
2022-12-08T13:45:21.450Z,13.20
2022-12-08T13:48:20.358Z,11.90
2022-12-08T13:59:08.220Z,11.20
2022-12-08T14:01:43.914Z,11.55
2022-12-08T14:07:04.967Z,12.73
2022-12-08T14:09:35.934Z,12.35
2022-12-08T14:12:05.825Z,11.52
2022-12-08T14:17:24.102Z,13.45
2022-12-08T14:19:56.649Z,12.50
2022-12-08T14:24:51.969Z,12.73
2022-12-08T14:27:21.446Z,13.93
2022-12-08T14:29:50.981Z,14.07
2022-12-08T14:32:28.746Z,14.02
2022-12-08T14:34:59.289Z,13.07
2022-12-08T14:37:27.662Z,13.07
2022-12-08T14:39:58.698Z,13.20
2022-12-08T14:42:27.926Z,13.65
2022-12-08T14:45:05.576Z,12.13
2022-12-08T14:47:34.609Z,12.80
2022-12-08T14:50:03.509Z,12.57
2022-12-08T14:52:30.975Z,12.32
2022-12-08T14:54:58.341Z,12.57
2022-12-08T14:57:33.660Z,12.60
2022-12-08T15:00:08.627Z,13.48
2022-12-08T15:02:44.241Z,15.00
2022-12-08T15:05:14.729Z,15.20
2022-12-08T15:07:47.088Z,16.85
2022-12-08T15:10:22.808Z,15.55
2022-12-08T15:13:01.654Z,17.33
2022-12-08T15:15:29.461Z,15.63
2022-12-08T15:18:11.432Z,17.25
2022-12-08T15:20:41.845Z,17.17
2022-12-08T15:23:20.384Z,17.08
2022-12-08T15:25:47.065Z,17.15
2022-12-08T15:28:15.792Z,17.20
2022-12-08T15:30:42.675Z,17.08
2022-12-08T15:33:10.669Z,17.48
2022-12-08T15:35:40.895Z,16.85
2022-12-08T15:38:16.608Z,16.67
2022-12-08T15:40:43.256Z,16.17
2022-12-08T15:43:10.617Z,16.85
2022-12-08T15:45:38.029Z,17.42
2022-12-08T15:48:05.370Z,16.02
2022-12-08T15:50:33.296Z,15.88
2022-12-08T15:52:59.968Z,16.58
2022-12-08T15:55:26.951Z,15.88
2022-12-08T16:00:52.259Z,14.32
2022-12-08T16:04:02.644Z,14.88
2022-12-08T16:09:11.773Z,13.82
2022-12-08T16:12:05.342Z,14.25
2022-12-08T16:17:13.861Z,13.93
2022-12-08T16:19:40.598Z,15.07
2022-12-08T16:22:56.455Z,14.02
2022-12-08T16:25:17.809Z,14.25
2022-12-08T16:28:12.294Z,13.35
2022-12-08T16:30:33.198Z,12.90
2022-12-08T16:32:59.788Z,12.55
2022-12-08T16:35:26.348Z,13.18
2022-12-08T16:37:54.289Z,13.30
2022-12-08T16:40:21.404Z,12.57
2022-12-08T16:42:47.962Z,13.55
2022-12-08T16:45:17.312Z,12.65
2022-12-08T16:47:46.386Z,12.38
2022-12-08T16:50:15.143Z,12.68
2022-12-08T16:52:42.034Z,12.43
2022-12-08T16:55:11.395Z,13.50
2022-12-08T16:57:38.730Z,13.15
2022-12-08T17:00:08.175Z,12.70
2022-12-08T17:02:35.221Z,13.85
2022-12-08T17:05:01.892Z,13.45
2022-12-08T17:07:28.562Z,13.65
2022-12-08T17:09:55.160Z,13.15
2022-12-08T17:12:23.141Z,12.80
2022-12-08T17:14:49.813Z,13.20
2022-12-08T17:17:16.442Z,12.65
2022-12-08T17:19:43.088Z,13.35
2022-12-08T17:22:09.657Z,13.45
2022-12-08T17:24:37.548Z,13.48
2022-12-08T17:27:04.643Z,13.73
2022-12-08T17:29:33.456Z,13.45
2022-12-08T17:32:00.549Z,12.77
2022-12-08T17:34:27.244Z,12.98
2022-12-08T17:36:53.845Z,12.25
2022-12-08T17:39:20.527Z,13.23
2022-12-08T17:41:47.562Z,12.95
2022-12-08T17:44:16.370Z,12.73
2022-12-08T17:46:50.692Z,12.02
2022-12-08T17:49:21.313Z,12.85
2022-12-08T17:51:48.795Z,12.15
2022-12-08T17:54:16.001Z,12.07
2022-12-08T17:56:42.861Z,12.18
2022-12-08T17:59:10.554Z,12.77
2022-12-08T18:01:37.393Z,11.88
2022-12-08T18:04:06.976Z,12.65
2022-12-08T18:06:34.529Z,11.63
2022-12-08T18:09:01.637Z,12.40
2022-12-08T18:11:29.141Z,13.07
2022-12-08T18:13:55.955Z,13.30
2022-12-08T18:16:24.900Z,13.13
2022-12-08T18:18:51.808Z,13.13
2022-12-08T18:21:23.233Z,13.18
2022-12-08T18:23:50.875Z,13.40
2022-12-08T18:26:17.595Z,13.52
2022-12-08T18:28:44.268Z,14.93
2022-12-08T18:31:12.520Z,14.27
2022-12-08T18:33:40.542Z,15.15
2022-12-08T18:36:08.966Z,14.05
2022-12-08T18:38:37.324Z,14.40
2022-12-08T18:41:05.511Z,14.05
2022-12-08T18:43:32.148Z,13.43
2022-12-08T18:46:01.428Z,13.43
2022-12-08T18:48:28.181Z,13.48
2022-12-08T18:50:54.806Z,13.40
2022-12-08T18:53:21.507Z,13.90
2022-12-08T18:55:49.430Z,13.80
2022-12-08T18:58:16.099Z,14.82
2022-12-08T19:00:42.709Z,13.32
2022-12-08T19:03:09.522Z,14.18
2022-12-08T19:05:36.239Z,13.68
2022-12-08T19:08:04.281Z,13.98
2022-12-08T19:10:30.923Z,13.57
2022-12-08T19:12:58.948Z,13.75
2022-12-08T19:15:25.615Z,13.13
2022-12-08T19:17:52.353Z,12.88
2022-12-08T19:20:19.161Z,14.48
2022-12-08T19:22:45.789Z,14.35
2022-12-08T19:25:12.353Z,13.95
2022-12-08T19:27:38.969Z,14.05
2022-12-08T19:30:09.938Z,14.48
2022-12-08T19:32:36.675Z,14.18
2022-12-08T19:35:03.560Z,15.02
2022-12-08T19:37:30.540Z,14.40
2022-12-08T19:39:57.113Z,14.52
2022-12-08T19:42:24.301Z,13.52
2022-12-08T19:44:50.939Z,14.35
2022-12-08T19:47:19.080Z,14.80
2022-12-08T19:49:45.798Z,13.90
2022-12-08T19:52:12.448Z,13.80
2022-12-08T19:54:39.125Z,14.35
2022-12-08T19:57:05.713Z,13.23
2022-12-08T19:59:32.460Z,14.18
2022-12-08T20:01:59.572Z,15.18
2022-12-08T20:04:27.765Z,13.73
2022-12-08T20:06:55.685Z,15.00
2022-12-08T20:09:23.185Z,15.32
2022-12-08T20:11:50.125Z,14.63
2022-12-08T20:14:17.665Z,15.35
2022-12-08T20:16:44.481Z,15.68
2022-12-08T20:19:11.201Z,17.50
2022-12-08T20:21:40.468Z,15.82
2022-12-08T20:24:07.366Z,15.75
2022-12-08T20:26:34.038Z,16.80
2022-12-08T20:29:00.587Z,16.20
2022-12-08T20:31:28.729Z,15.75
2022-12-08T20:33:55.374Z,15.60
2022-12-08T20:36:22.319Z,15.82
2022-12-08T20:38:51.785Z,16.38
2022-12-08T20:41:19.496Z,15.77
2022-12-08T20:43:47.445Z,15.93
2022-12-08T20:46:16.492Z,16.48
2022-12-08T20:48:43.537Z,15.10
2022-12-08T20:51:13.096Z,16.88
2022-12-08T20:53:39.757Z,16.38
2022-12-08T20:56:08.457Z,17.00
2022-12-08T20:58:35.066Z,16.83
2022-12-08T21:01:08.635Z,17.63
2022-12-08T21:03:35.343Z,17.30
2022-12-08T21:06:02.303Z,16.98
2022-12-08T21:08:29.070Z,17.23
2022-12-08T21:10:56.746Z,17.63
2022-12-08T21:13:25.016Z,17.30
2022-12-08T21:15:51.662Z,18.23
2022-12-08T21:18:18.964Z,19.00
2022-12-08T21:20:46.085Z,18.65
2022-12-08T21:23:12.940Z,18.60
2022-12-08T21:25:41.020Z,18.23
2022-12-08T21:28:08.419Z,18.98
2022-12-08T21:30:38.011Z,18.05
2022-12-08T21:33:04.889Z,18.30
2022-12-08T21:35:31.826Z,17.30
2022-12-08T21:37:58.633Z,18.45
2022-12-08T21:40:25.759Z,18.38
2022-12-08T21:42:53.040Z,18.17
2022-12-08T21:45:21.089Z,18.95
2022-12-08T21:47:49.797Z,19.98
2022-12-08T21:50:17.715Z,18.67
2022-12-08T21:52:47.578Z,19.70
2022-12-08T21:55:16.051Z,19.50
2022-12-08T21:57:42.822Z,20.63
2022-12-08T22:00:14.010Z,20.05
2022-12-08T22:02:40.784Z,21.95
2022-12-08T22:05:09.910Z,21.63
2022-12-08T22:07:38.946Z,22.02
2022-12-08T22:10:06.931Z,21.60
2022-12-08T22:12:34.377Z,21.17
2022-12-08T22:15:01.085Z,21.63
2022-12-08T22:17:27.865Z,21.40
2022-12-08T22:19:54.750Z,21.48
2022-12-08T22:22:23.023Z,21.15
2022-12-08T22:24:49.752Z,22.42
2022-12-08T22:27:16.542Z,20.77
2022-12-08T22:29:44.122Z,22.75
2022-12-08T22:32:10.753Z,21.95
2022-12-08T22:34:37.455Z,21.95
2022-12-08T22:37:04.191Z,22.67
2022-12-08T22:39:32.198Z,24.00
2022-12-08T22:41:58.764Z,22.92
2022-12-08T22:44:25.300Z,22.27
2022-12-08T22:46:51.970Z,23.67
2022-12-08T22:49:18.659Z,23.17
2022-12-08T22:51:45.437Z,23.90
2022-12-08T22:54:12.165Z,22.52
2022-12-08T22:56:40.097Z,23.27
2022-12-08T22:59:06.682Z,24.05
2022-12-08T23:01:34.124Z,22.73
2022-12-08T23:04:01.389Z,23.10
2022-12-08T23:06:29.245Z,22.25
2022-12-08T23:08:56.598Z,22.15
2022-12-08T23:11:25.446Z,22.00
2022-12-08T23:13:53.368Z,21.40
2022-12-08T23:16:20.248Z,22.33
2022-12-08T23:18:47.025Z,22.05
2022-12-08T23:21:16.904Z,22.25
2022-12-08T23:23:43.818Z,20.73
2022-12-08T23:26:16.989Z,22.02
2022-12-08T23:28:43.742Z,20.73
2022-12-08T23:31:11.869Z,22.15
2022-12-08T23:33:38.696Z,21.75
2022-12-08T23:36:05.954Z,22.27
2022-12-08T23:38:33.025Z,22.38
2022-12-08T23:41:01.065Z,21.92
2022-12-08T23:43:27.676Z,22.55
2022-12-08T23:45:54.649Z,23.10
2022-12-08T23:48:22.818Z,22.98
2022-12-08T23:50:49.792Z,21.60
2022-12-08T23:53:16.679Z,22.70
2022-12-08T23:55:43.245Z,22.95
2022-12-08T23:58:10.475Z,22.67
